sensor_id;sensor_type;location;lat;lon;timestamp;P1;durP1;ratioP1;P2;durP2;ratioP2
47309;SDS011;33046;52.270;6.832;2022-08-19T00:00:53;7.28;;;5.63;;
47309;SDS011;33046;52.270;6.832;2022-08-19T00:03:00;6.10;;;5.50;;
47309;SDS011;33046;52.270;6.832;2022-08-19T00:05:07;5.35;;;4.85;;
47309;SDS011;33046;52.270;6.832;2022-08-19T00:07:15;8.13;;;5.20;;
47309;SDS011;33046;52.270;6.832;2022-08-19T00:09:23;6.45;;;5.85;;
47309;SDS011;33046;52.270;6.832;2022-08-19T00:11:32;6.75;;;6.15;;
47309;SDS011;33046;52.270;6.832;2022-08-19T00:13:39;6.88;;;6.18;;
47309;SDS011;33046;52.270;6.832;2022-08-19T00:15:46;5.88;;;5.38;;
47309;SDS011;33046;52.270;6.832;2022-08-19T00:17:53;5.93;;;5.43;;
47309;SDS011;33046;52.270;6.832;2022-08-19T00:20:00;6.45;;;5.88;;
47309;SDS011;33046;52.270;6.832;2022-08-19T00:22:07;6.97;;;6.38;;
47309;SDS011;33046;52.270;6.832;2022-08-19T00:24:14;7.15;;;6.55;;
47309;SDS011;33046;52.270;6.832;2022-08-19T00:26:21;7.22;;;6.63;;
47309;SDS011;33046;52.270;6.832;2022-08-19T00:28:29;8.05;;;6.90;;
47309;SDS011;33046;52.270;6.832;2022-08-19T00:30:36;8.23;;;7.53;;
47309;SDS011;33046;52.270;6.832;2022-08-19T00:32:43;7.13;;;6.50;;
47309;SDS011;33046;52.270;6.832;2022-08-19T00:34:50;6.32;;;5.72;;
47309;SDS011;33046;52.270;6.832;2022-08-19T00:36:58;6.82;;;6.20;;
47309;SDS011;33046;52.270;6.832;2022-08-19T00:39:05;7.95;;;7.15;;
47309;SDS011;33046;52.270;6.832;2022-08-19T00:41:12;6.53;;;5.93;;
47309;SDS011;33046;52.270;6.832;2022-08-19T00:43:20;5.38;;;4.88;;
47309;SDS011;33046;52.270;6.832;2022-08-19T00:45:30;5.22;;;4.72;;
47309;SDS011;33046;52.270;6.832;2022-08-19T00:47:37;4.47;;;4.15;;
47309;SDS011;33046;52.270;6.832;2022-08-19T00:49:45;5.25;;;4.15;;
47309;SDS011;33046;52.270;6.832;2022-08-19T00:51:57;5.43;;;4.93;;
47309;SDS011;33046;52.270;6.832;2022-08-19T00:54:07;5.03;;;4.07;;
47309;SDS011;33046;52.270;6.832;2022-08-19T00:56:15;5.20;;;4.72;;
47309;SDS011;33046;52.270;6.832;2022-08-19T00:58:23;4.68;;;4.28;;
47309;SDS011;33046;52.270;6.832;2022-08-19T01:00:33;4.63;;;4.22;;
47309;SDS011;33046;52.270;6.832;2022-08-19T01:02:41;5.50;;;5.10;;
47309;SDS011;33046;52.270;6.832;2022-08-19T01:04:48;6.75;;;4.78;;
47309;SDS011;33046;52.270;6.832;2022-08-19T01:06:55;5.93;;;5.43;;
47309;SDS011;33046;52.270;6.832;2022-08-19T01:09:03;6.07;;;5.57;;
47309;SDS011;33046;52.270;6.832;2022-08-19T01:11:10;7.10;;;5.38;;
47309;SDS011;33046;52.270;6.832;2022-08-19T01:13:19;6.47;;;5.93;;
47309;SDS011;33046;52.270;6.832;2022-08-19T01:15:29;6.53;;;5.97;;
47309;SDS011;33046;52.270;6.832;2022-08-19T01:17:39;6.97;;;6.32;;
47309;SDS011;33046;52.270;6.832;2022-08-19T01:19:47;5.95;;;5.38;;
47309;SDS011;33046;52.270;6.832;2022-08-19T01:21:55;6.68;;;6.07;;
47309;SDS011;33046;52.270;6.832;2022-08-19T01:24:08;5.70;;;5.10;;
47309;SDS011;33046;52.270;6.832;2022-08-19T01:26:16;5.80;;;4.95;;
47309;SDS011;33046;52.270;6.832;2022-08-19T01:28:25;5.63;;;4.40;;
47309;SDS011;33046;52.270;6.832;2022-08-19T01:30:35;6.20;;;4.97;;
47309;SDS011;33046;52.270;6.832;2022-08-19T01:32:42;6.22;;;4.53;;
47309;SDS011;33046;52.270;6.832;2022-08-19T01:34:48;5.60;;;4.65;;
47309;SDS011;33046;52.270;6.832;2022-08-19T01:36:55;5.93;;;4.68;;
47309;SDS011;33046;52.270;6.832;2022-08-19T01:39:03;5.82;;;5.25;;
47309;SDS011;33046;52.270;6.832;2022-08-19T01:41:13;7.00;;;5.75;;
47309;SDS011;33046;52.270;6.832;2022-08-19T01:43:20;5.50;;;5.00;;
47309;SDS011;33046;52.270;6.832;2022-08-19T01:45:27;4.95;;;4.55;;
47309;SDS011;33046;52.270;6.832;2022-08-19T01:47:36;5.35;;;4.85;;
47309;SDS011;33046;52.270;6.832;2022-08-19T01:49:43;4.38;;;4.07;;
47309;SDS011;33046;52.270;6.832;2022-08-19T01:51:49;5.80;;;5.20;;
47309;SDS011;33046;52.270;6.832;2022-08-19T01:53:57;5.70;;;5.07;;
47309;SDS011;33046;52.270;6.832;2022-08-19T01:56:04;5.55;;;5.03;;
47309;SDS011;33046;52.270;6.832;2022-08-19T01:58:14;4.82;;;4.43;;
47309;SDS011;33046;52.270;6.832;2022-08-19T02:00:26;5.53;;;5.03;;
47309;SDS011;33046;52.270;6.832;2022-08-19T02:02:35;6.78;;;4.38;;
47309;SDS011;33046;52.270;6.832;2022-08-19T02:04:42;4.63;;;4.00;;
47309;SDS011;33046;52.270;6.832;2022-08-19T02:06:49;4.50;;;4.10;;
47309;SDS011;33046;52.270;6.832;2022-08-19T02:08:56;5.43;;;3.80;;
47309;SDS011;33046;52.270;6.832;2022-08-19T02:11:04;4.93;;;4.28;;
47309;SDS011;33046;52.270;6.832;2022-08-19T02:13:12;4.80;;;4.40;;
47309;SDS011;33046;52.270;6.832;2022-08-19T02:15:20;4.50;;;4.10;;
47309;SDS011;33046;52.270;6.832;2022-08-19T02:17:27;4.90;;;4.50;;
47309;SDS011;33046;52.270;6.832;2022-08-19T02:19:34;4.80;;;4.40;;
47309;SDS011;33046;52.270;6.832;2022-08-19T02:21:41;4.47;;;4.07;;
47309;SDS011;33046;52.270;6.832;2022-08-19T02:23:48;7.05;;;4.13;;
47309;SDS011;33046;52.270;6.832;2022-08-19T02:25:56;6.65;;;4.18;;
47309;SDS011;33046;52.270;6.832;2022-08-19T02:28:03;3.75;;;3.45;;
47309;SDS011;33046;52.270;6.832;2022-08-19T02:30:14;3.90;;;3.50;;
47309;SDS011;33046;52.270;6.832;2022-08-19T02:32:22;2.80;;;2.60;;
47309;SDS011;33046;52.270;6.832;2022-08-19T02:34:28;3.15;;;2.88;;
47309;SDS011;33046;52.270;6.832;2022-08-19T02:36:35;2.50;;;2.30;;
47309;SDS011;33046;52.270;6.832;2022-08-19T02:38:43;3.70;;;2.83;;
47309;SDS011;33046;52.270;6.832;2022-08-19T02:40:50;3.55;;;3.25;;
47309;SDS011;33046;52.270;6.832;2022-08-19T02:42:58;2.42;;;2.22;;
47309;SDS011;33046;52.270;6.832;2022-08-19T02:45:05;3.40;;;3.10;;
47309;SDS011;33046;52.270;6.832;2022-08-19T02:47:14;3.72;;;3.35;;
47309;SDS011;33046;52.270;6.832;2022-08-19T02:49:21;4.47;;;3.85;;
47309;SDS011;33046;52.270;6.832;2022-08-19T02:51:29;4.30;;;4.00;;
47309;SDS011;33046;52.270;6.832;2022-08-19T02:53:43;3.00;;;2.70;;
47309;SDS011;33046;52.270;6.832;2022-08-19T02:55:50;3.17;;;2.88;;
47309;SDS011;33046;52.270;6.832;2022-08-19T02:57:58;4.97;;;3.72;;
47309;SDS011;33046;52.270;6.832;2022-08-19T03:00:05;4.57;;;4.18;;
47309;SDS011;33046;52.270;6.832;2022-08-19T03:02:13;4.72;;;4.32;;
47309;SDS011;33046;52.270;6.832;2022-08-19T03:04:21;4.50;;;4.20;;
47309;SDS011;33046;52.270;6.832;2022-08-19T03:06:28;3.72;;;3.42;;
47309;SDS011;33046;52.270;6.832;2022-08-19T03:08:35;4.35;;;3.95;;
47309;SDS011;33046;52.270;6.832;2022-08-19T03:10:44;3.88;;;3.58;;
47309;SDS011;33046;52.270;6.832;2022-08-19T03:12:52;3.17;;;2.88;;
47309;SDS011;33046;52.270;6.832;2022-08-19T03:14:59;4.35;;;2.70;;
47309;SDS011;33046;52.270;6.832;2022-08-19T03:17:06;3.90;;;2.80;;
47309;SDS011;33046;52.270;6.832;2022-08-19T03:19:15;3.13;;;2.83;;
47309;SDS011;33046;52.270;6.832;2022-08-19T03:21:24;4.22;;;3.17;;
47309;SDS011;33046;52.270;6.832;2022-08-19T03:23:32;3.80;;;3.17;;
47309;SDS011;33046;52.270;6.832;2022-08-19T03:25:39;6.60;;;3.50;;
47309;SDS011;33046;52.270;6.832;2022-08-19T03:27:47;5.28;;;2.58;;
47309;SDS011;33046;52.270;6.832;2022-08-19T03:29:54;2.13;;;1.50;;
47309;SDS011;33046;52.270;6.832;2022-08-19T03:32:02;2.17;;;1.98;;
47309;SDS011;33046;52.270;6.832;2022-08-19T03:34:11;2.70;;;2.40;;
47309;SDS011;33046;52.270;6.832;2022-08-19T03:36:21;3.38;;;1.92;;
47309;SDS011;33046;52.270;6.832;2022-08-19T03:38:29;2.03;;;1.42;;
47309;SDS011;33046;52.270;6.832;2022-08-19T03:40:36;1.88;;;1.38;;
47309;SDS011;33046;52.270;6.832;2022-08-19T03:42:43;3.15;;;1.42;;
47309;SDS011;33046;52.270;6.832;2022-08-19T03:44:50;2.95;;;1.88;;
47309;SDS011;33046;52.270;6.832;2022-08-19T03:46:57;3.03;;;1.98;;
47309;SDS011;33046;52.270;6.832;2022-08-19T03:49:05;3.50;;;1.98;;
47309;SDS011;33046;52.270;6.832;2022-08-19T03:51:15;3.15;;;2.20;;
47309;SDS011;33046;52.270;6.832;2022-08-19T03:53:25;2.58;;;2.38;;
47309;SDS011;33046;52.270;6.832;2022-08-19T03:55:32;2.95;;;2.75;;
47309;SDS011;33046;52.270;6.832;2022-08-19T03:57:39;3.10;;;2.58;;
47309;SDS011;33046;52.270;6.832;2022-08-19T03:59:46;3.28;;;2.72;;
47309;SDS011;33046;52.270;6.832;2022-08-19T04:01:53;3.38;;;3.10;;
47309;SDS011;33046;52.270;6.832;2022-08-19T04:04:01;4.18;;;3.58;;
47309;SDS011;33046;52.270;6.832;2022-08-19T04:06:09;4.70;;;3.38;;
47309;SDS011;33046;52.270;6.832;2022-08-19T04:08:17;3.30;;;3.00;;
47309;SDS011;33046;52.270;6.832;2022-08-19T04:10:25;5.50;;;4.93;;
47309;SDS011;33046;52.270;6.832;2022-08-19T04:12:32;5.70;;;4.97;;
47309;SDS011;33046;52.270;6.832;2022-08-19T04:14:39;5.45;;;4.90;;
47309;SDS011;33046;52.270;6.832;2022-08-19T04:16:47;4.90;;;4.32;;
47309;SDS011;33046;52.270;6.832;2022-08-19T04:18:55;5.78;;;4.30;;
47309;SDS011;33046;52.270;6.832;2022-08-19T04:21:02;4.50;;;4.10;;
47309;SDS011;33046;52.270;6.832;2022-08-19T04:23:09;5.07;;;4.68;;
47309;SDS011;33046;52.270;6.832;2022-08-19T04:25:16;5.80;;;5.32;;
47309;SDS011;33046;52.270;6.832;2022-08-19T04:27:24;7.00;;;4.88;;
47309;SDS011;33046;52.270;6.832;2022-08-19T04:29:32;5.88;;;5.38;;
47309;SDS011;33046;52.270;6.832;2022-08-19T04:31:39;5.22;;;4.72;;
47309;SDS011;33046;52.270;6.832;2022-08-19T04:33:47;4.63;;;4.22;;
47309;SDS011;33046;52.270;6.832;2022-08-19T04:35:53;5.43;;;4.40;;
47309;SDS011;33046;52.270;6.832;2022-08-19T04:38:00;4.15;;;3.75;;
47309;SDS011;33046;52.270;6.832;2022-08-19T04:40:07;5.38;;;4.88;;
47309;SDS011;33046;52.270;6.832;2022-08-19T04:42:15;5.72;;;5.22;;
47309;SDS011;33046;52.270;6.832;2022-08-19T04:44:25;5.05;;;4.65;;
47309;SDS011;33046;52.270;6.832;2022-08-19T04:46:32;7.95;;;5.70;;
47309;SDS011;33046;52.270;6.832;2022-08-19T04:48:39;8.05;;;5.63;;
47309;SDS011;33046;52.270;6.832;2022-08-19T04:50:46;7.05;;;6.45;;
47309;SDS011;33046;52.270;6.832;2022-08-19T04:52:53;7.57;;;6.97;;
47309;SDS011;33046;52.270;6.832;2022-08-19T04:55:00;6.60;;;6.05;;
47309;SDS011;33046;52.270;6.832;2022-08-19T04:57:07;6.90;;;5.65;;
47309;SDS011;33046;52.270;6.832;2022-08-19T04:59:15;5.40;;;4.93;;
47309;SDS011;33046;52.270;6.832;2022-08-19T05:01:24;6.00;;;5.40;;
47309;SDS011;33046;52.270;6.832;2022-08-19T05:03:32;5.68;;;5.10;;
47309;SDS011;33046;52.270;6.832;2022-08-19T05:05:39;4.65;;;4.22;;
47309;SDS011;33046;52.270;6.832;2022-08-19T05:07:47;4.97;;;4.57;;
47309;SDS011;33046;52.270;6.832;2022-08-19T05:09:54;8.80;;;5.30;;
47309;SDS011;33046;52.270;6.832;2022-08-19T05:12:01;6.30;;;5.80;;
47309;SDS011;33046;52.270;6.832;2022-08-19T05:14:08;7.82;;;5.88;;
47309;SDS011;33046;52.270;6.832;2022-08-19T05:16:16;5.60;;;4.72;;
47309;SDS011;33046;52.270;6.832;2022-08-19T05:18:27;6.55;;;5.95;;
47309;SDS011;33046;52.270;6.832;2022-08-19T05:20:33;7.63;;;5.97;;
47309;SDS011;33046;52.270;6.832;2022-08-19T05:22:45;7.45;;;6.80;;
47309;SDS011;33046;52.270;6.832;2022-08-19T05:24:53;6.60;;;5.95;;
47309;SDS011;33046;52.270;6.832;2022-08-19T05:27:14;7.88;;;7.15;;
47309;SDS011;33046;52.270;6.832;2022-08-19T05:29:22;6.85;;;6.25;;
47309;SDS011;33046;52.270;6.832;2022-08-19T05:31:31;7.90;;;7.20;;
47309;SDS011;33046;52.270;6.832;2022-08-19T05:33:39;8.02;;;6.88;;
47309;SDS011;33046;52.270;6.832;2022-08-19T05:35:46;9.23;;;8.35;;
47309;SDS011;33046;52.270;6.832;2022-08-19T05:37:53;7.78;;;6.88;;
47309;SDS011;33046;52.270;6.832;2022-08-19T05:39:59;8.05;;;6.90;;
47309;SDS011;33046;52.270;6.832;2022-08-19T05:42:07;8.90;;;7.95;;
47309;SDS011;33046;52.270;6.832;2022-08-19T05:44:16;10.95;;;7.05;;
47309;SDS011;33046;52.270;6.832;2022-08-19T05:46:23;8.95;;;8.13;;
47309;SDS011;33046;52.270;6.832;2022-08-19T05:48:30;11.60;;;8.18;;
47309;SDS011;33046;52.270;6.832;2022-08-19T05:50:38;9.48;;;8.57;;
47309;SDS011;33046;52.270;6.832;2022-08-19T05:52:46;9.52;;;7.53;;
47309;SDS011;33046;52.270;6.832;2022-08-19T05:54:53;9.05;;;8.10;;
47309;SDS011;33046;52.270;6.832;2022-08-19T05:57:00;14.63;;;8.02;;
47309;SDS011;33046;52.270;6.832;2022-08-19T05:59:08;10.23;;;7.35;;
47309;SDS011;33046;52.270;6.832;2022-08-19T06:01:17;9.07;;;7.40;;
47309;SDS011;33046;52.270;6.832;2022-08-19T06:03:24;9.15;;;7.72;;
47309;SDS011;33046;52.270;6.832;2022-08-19T06:05:31;10.48;;;7.63;;
47309;SDS011;33046;52.270;6.832;2022-08-19T06:07:39;9.10;;;8.18;;
47309;SDS011;33046;52.270;6.832;2022-08-19T06:09:46;10.60;;;8.05;;
47309;SDS011;33046;52.270;6.832;2022-08-19T06:11:54;8.73;;;7.93;;
47309;SDS011;33046;52.270;6.832;2022-08-19T06:14:03;12.63;;;7.63;;
47309;SDS011;33046;52.270;6.832;2022-08-19T06:16:11;10.38;;;7.32;;
47309;SDS011;33046;52.270;6.832;2022-08-19T06:18:18;13.60;;;9.15;;
47309;SDS011;33046;52.270;6.832;2022-08-19T06:20:24;8.68;;;7.68;;
47309;SDS011;33046;52.270;6.832;2022-08-19T06:22:47;9.38;;;8.02;;
47309;SDS011;33046;52.270;6.832;2022-08-19T06:24:54;8.10;;;7.20;;
47309;SDS011;33046;52.270;6.832;2022-08-19T06:27:02;7.40;;;6.65;;
47309;SDS011;33046;52.270;6.832;2022-08-19T06:29:10;10.60;;;8.85;;
47309;SDS011;33046;52.270;6.832;2022-08-19T06:31:20;11.50;;;10.50;;
47309;SDS011;33046;52.270;6.832;2022-08-19T06:33:29;12.48;;;10.82;;
47309;SDS011;33046;52.270;6.832;2022-08-19T06:35:38;14.05;;;10.57;;
47309;SDS011;33046;52.270;6.832;2022-08-19T06:37:46;12.73;;;11.50;;
47309;SDS011;33046;52.270;6.832;2022-08-19T06:39:53;13.07;;;11.18;;
47309;SDS011;33046;52.270;6.832;2022-08-19T06:42:00;15.25;;;13.40;;
47309;SDS011;33046;52.270;6.832;2022-08-19T06:44:09;12.52;;;11.30;;
47309;SDS011;33046;52.270;6.832;2022-08-19T06:46:16;11.45;;;10.35;;
47309;SDS011;33046;52.270;6.832;2022-08-19T06:48:23;13.38;;;12.07;;
47309;SDS011;33046;52.270;6.832;2022-08-19T06:50:30;15.02;;;13.70;;
47309;SDS011;33046;52.270;6.832;2022-08-19T06:52:37;13.95;;;12.75;;
47309;SDS011;33046;52.270;6.832;2022-08-19T06:54:45;14.55;;;13.07;;
47309;SDS011;33046;52.270;6.832;2022-08-19T06:56:52;14.65;;;13.25;;
47309;SDS011;33046;52.270;6.832;2022-08-19T06:58:59;14.45;;;12.60;;
47309;SDS011;33046;52.270;6.832;2022-08-19T07:01:06;14.43;;;12.88;;
47309;SDS011;33046;52.270;6.832;2022-08-19T07:03:13;15.25;;;13.90;;
47309;SDS011;33046;52.270;6.832;2022-08-19T07:05:20;15.20;;;13.70;;
47309;SDS011;33046;52.270;6.832;2022-08-19T07:07:27;15.43;;;13.93;;
47309;SDS011;33046;52.270;6.832;2022-08-19T07:09:34;15.40;;;14.07;;
47309;SDS011;33046;52.270;6.832;2022-08-19T07:11:44;14.55;;;13.18;;
47309;SDS011;33046;52.270;6.832;2022-08-19T07:13:52;15.25;;;13.85;;
47309;SDS011;33046;52.270;6.832;2022-08-19T07:16:00;14.57;;;13.00;;
47309;SDS011;33046;52.270;6.832;2022-08-19T07:18:09;15.07;;;13.55;;
47309;SDS011;33046;52.270;6.832;2022-08-19T07:20:16;15.18;;;13.55;;
47309;SDS011;33046;52.270;6.832;2022-08-19T07:22:23;14.32;;;12.85;;
47309;SDS011;33046;52.270;6.832;2022-08-19T07:24:29;15.25;;;13.73;;
47309;SDS011;33046;52.270;6.832;2022-08-19T07:26:38;14.52;;;13.13;;
47309;SDS011;33046;52.270;6.832;2022-08-19T07:28:47;13.38;;;12.25;;
47309;SDS011;33046;52.270;6.832;2022-08-19T07:30:55;17.63;;;12.40;;
47309;SDS011;33046;52.270;6.832;2022-08-19T07:33:01;13.45;;;12.20;;
47309;SDS011;33046;52.270;6.832;2022-08-19T07:35:09;13.38;;;11.95;;
47309;SDS011;33046;52.270;6.832;2022-08-19T07:37:16;12.63;;;11.40;;
47309;SDS011;33046;52.270;6.832;2022-08-19T07:39:24;14.95;;;11.80;;
47309;SDS011;33046;52.270;6.832;2022-08-19T07:41:32;11.18;;;10.10;;
47309;SDS011;33046;52.270;6.832;2022-08-19T07:43:41;12.95;;;9.82;;
47309;SDS011;33046;52.270;6.832;2022-08-19T07:45:49;13.32;;;10.75;;
47309;SDS011;33046;52.270;6.832;2022-08-19T07:47:56;10.00;;;9.07;;
47309;SDS011;33046;52.270;6.832;2022-08-19T07:50:02;10.68;;;9.10;;
47309;SDS011;33046;52.270;6.832;2022-08-19T07:52:11;11.15;;;10.10;;
47309;SDS011;33046;52.270;6.832;2022-08-19T07:54:19;10.13;;;9.15;;
47309;SDS011;33046;52.270;6.832;2022-08-19T07:56:27;9.68;;;8.73;;
47309;SDS011;33046;52.270;6.832;2022-08-19T07:58:36;10.07;;;9.05;;
47309;SDS011;33046;52.270;6.832;2022-08-19T08:00:45;9.73;;;8.82;;
47309;SDS011;33046;52.270;6.832;2022-08-19T08:02:54;8.77;;;7.97;;
47309;SDS011;33046;52.270;6.832;2022-08-19T08:05:02;9.60;;;8.63;;
47309;SDS011;33046;52.270;6.832;2022-08-19T08:07:09;10.68;;;9.68;;
47309;SDS011;33046;52.270;6.832;2022-08-19T08:09:20;10.70;;;9.70;;
47309;SDS011;33046;52.270;6.832;2022-08-19T08:11:29;10.30;;;8.93;;
47309;SDS011;33046;52.270;6.832;2022-08-19T08:13:36;11.88;;;10.80;;
47309;SDS011;33046;52.270;6.832;2022-08-19T08:15:42;9.95;;;8.95;;
47309;SDS011;33046;52.270;6.832;2022-08-19T08:17:49;12.05;;;10.65;;
47309;SDS011;33046;52.270;6.832;2022-08-19T08:19:57;11.57;;;10.35;;
47309;SDS011;33046;52.270;6.832;2022-08-19T08:22:04;10.30;;;9.38;;
47309;SDS011;33046;52.270;6.832;2022-08-19T08:24:11;11.35;;;10.35;;
47309;SDS011;33046;52.270;6.832;2022-08-19T08:26:18;11.05;;;10.10;;
47309;SDS011;33046;52.270;6.832;2022-08-19T08:28:25;11.15;;;10.15;;
47309;SDS011;33046;52.270;6.832;2022-08-19T08:30:32;11.70;;;10.70;;
47309;SDS011;33046;52.270;6.832;2022-08-19T08:32:40;10.57;;;9.68;;
47309;SDS011;33046;52.270;6.832;2022-08-19T08:34:47;13.13;;;12.02;;
47309;SDS011;33046;52.270;6.832;2022-08-19T08:36:55;12.23;;;11.07;;
47309;SDS011;33046;52.270;6.832;2022-08-19T08:39:01;12.55;;;11.30;;
47309;SDS011;33046;52.270;6.832;2022-08-19T08:41:09;12.50;;;11.23;;
47309;SDS011;33046;52.270;6.832;2022-08-19T08:43:23;13.00;;;11.63;;
47309;SDS011;33046;52.270;6.832;2022-08-19T08:45:34;13.85;;;12.65;;
47309;SDS011;33046;52.270;6.832;2022-08-19T08:47:45;13.30;;;12.00;;
47309;SDS011;33046;52.270;6.832;2022-08-19T08:49:56;13.77;;;12.45;;
47309;SDS011;33046;52.270;6.832;2022-08-19T08:52:09;13.50;;;12.18;;
47309;SDS011;33046;52.270;6.832;2022-08-19T08:54:20;14.70;;;13.20;;
47309;SDS011;33046;52.270;6.832;2022-08-19T08:56:37;14.70;;;13.20;;
47309;SDS011;33046;52.270;6.832;2022-08-19T08:58:47;12.02;;;11.00;;
47309;SDS011;33046;52.270;6.832;2022-08-19T09:01:00;13.15;;;11.85;;
47309;SDS011;33046;52.270;6.832;2022-08-19T09:03:09;13.88;;;11.35;;
47309;SDS011;33046;52.270;6.832;2022-08-19T09:05:23;12.75;;;10.57;;
47309;SDS011;33046;52.270;6.832;2022-08-19T09:07:41;11.90;;;10.75;;
47309;SDS011;33046;52.270;6.832;2022-08-19T09:09:56;11.48;;;10.38;;
47309;SDS011;33046;52.270;6.832;2022-08-19T09:12:21;10.85;;;9.85;;
47309;SDS011;33046;52.270;6.832;2022-08-19T09:14:39;10.73;;;9.82;;
47309;SDS011;33046;52.270;6.832;2022-08-19T09:16:56;9.65;;;8.68;;
47309;SDS011;33046;52.270;6.832;2022-08-19T09:19:04;9.77;;;8.77;;
47309;SDS011;33046;52.270;6.832;2022-08-19T09:21:13;9.55;;;8.73;;
47309;SDS011;33046;52.270;6.832;2022-08-19T09:23:21;10.45;;;9.65;;
47309;SDS011;33046;52.270;6.832;2022-08-19T09:25:28;9.93;;;9.15;;
47309;SDS011;33046;52.270;6.832;2022-08-19T09:27:35;9.75;;;8.80;;
47309;SDS011;33046;52.270;6.832;2022-08-19T09:29:43;9.65;;;8.85;;
47309;SDS011;33046;52.270;6.832;2022-08-19T09:31:50;7.50;;;6.78;;
47309;SDS011;33046;52.270;6.832;2022-08-19T09:33:57;7.70;;;7.10;;
47309;SDS011;33046;52.270;6.832;2022-08-19T09:36:05;8.85;;;7.97;;
47309;SDS011;33046;52.270;6.832;2022-08-19T09:38:13;9.73;;;8.77;;
47309;SDS011;33046;52.270;6.832;2022-08-19T09:40:21;9.38;;;8.48;;
47309;SDS011;33046;52.270;6.832;2022-08-19T09:42:27;8.73;;;7.53;;
47309;SDS011;33046;52.270;6.832;2022-08-19T09:44:34;8.73;;;7.68;;
47309;SDS011;33046;52.270;6.832;2022-08-19T09:46:41;9.27;;;8.48;;
47309;SDS011;33046;52.270;6.832;2022-08-19T09:48:48;8.02;;;7.32;;
47309;SDS011;33046;52.270;6.832;2022-08-19T09:51:01;8.70;;;7.85;;
47309;SDS011;33046;52.270;6.832;2022-08-19T09:53:09;12.90;;;7.78;;
47309;SDS011;33046;52.270;6.832;2022-08-19T09:55:16;7.15;;;6.07;;
47309;SDS011;33046;52.270;6.832;2022-08-19T09:57:24;7.05;;;6.35;;
47309;SDS011;33046;52.270;6.832;2022-08-19T09:59:31;7.53;;;6.82;;
47309;SDS011;33046;52.270;6.832;2022-08-19T10:01:38;9.63;;;7.95;;
47309;SDS011;33046;52.270;6.832;2022-08-19T10:03:47;9.98;;;7.95;;
47309;SDS011;33046;52.270;6.832;2022-08-19T10:05:55;7.55;;;6.78;;
47309;SDS011;33046;52.270;6.832;2022-08-19T10:08:02;8.65;;;7.55;;
47309;SDS011;33046;52.270;6.832;2022-08-19T10:10:09;9.18;;;8.35;;
47309;SDS011;33046;52.270;6.832;2022-08-19T10:12:16;7.45;;;6.63;;
47309;SDS011;33046;52.270;6.832;2022-08-19T10:14:24;7.85;;;7.15;;
47309;SDS011;33046;52.270;6.832;2022-08-19T10:16:31;12.70;;;9.07;;
47309;SDS011;33046;52.270;6.832;2022-08-19T10:18:38;10.85;;;9.77;;
47309;SDS011;33046;52.270;6.832;2022-08-19T10:20:45;11.18;;;10.18;;
47309;SDS011;33046;52.270;6.832;2022-08-19T10:22:53;9.45;;;8.60;;
47309;SDS011;33046;52.270;6.832;2022-08-19T10:25:00;8.60;;;7.60;;
47309;SDS011;33046;52.270;6.832;2022-08-19T10:27:06;9.25;;;8.32;;
47309;SDS011;33046;52.270;6.832;2022-08-19T10:29:13;10.32;;;9.10;;
47309;SDS011;33046;52.270;6.832;2022-08-19T10:31:23;9.00;;;8.25;;
47309;SDS011;33046;52.270;6.832;2022-08-19T10:33:31;8.75;;;7.82;;
47309;SDS011;33046;52.270;6.832;2022-08-19T10:35:39;8.07;;;7.28;;
47309;SDS011;33046;52.270;6.832;2022-08-19T10:37:45;7.43;;;6.72;;
47309;SDS011;33046;52.270;6.832;2022-08-19T10:39:52;8.20;;;7.40;;
47309;SDS011;33046;52.270;6.832;2022-08-19T10:42:03;11.65;;;8.10;;
47309;SDS011;33046;52.270;6.832;2022-08-19T10:44:11;7.55;;;6.85;;
47309;SDS011;33046;52.270;6.832;2022-08-19T10:46:18;6.95;;;5.75;;
47309;SDS011;33046;52.270;6.832;2022-08-19T10:48:27;6.75;;;5.97;;
47309;SDS011;33046;52.270;6.832;2022-08-19T10:50:34;7.50;;;6.75;;
47309;SDS011;33046;52.270;6.832;2022-08-19T10:52:43;9.73;;;8.75;;
47309;SDS011;33046;52.270;6.832;2022-08-19T10:54:52;7.50;;;6.90;;
47309;SDS011;33046;52.270;6.832;2022-08-19T10:56:59;6.40;;;5.80;;
47309;SDS011;33046;52.270;6.832;2022-08-19T10:59:06;8.27;;;7.40;;
47309;SDS011;33046;52.270;6.832;2022-08-19T11:01:13;8.70;;;7.60;;
47309;SDS011;33046;52.270;6.832;2022-08-19T11:03:20;7.40;;;6.57;;
47309;SDS011;33046;52.270;6.832;2022-08-19T11:05:28;8.75;;;7.95;;
47309;SDS011;33046;52.270;6.832;2022-08-19T11:07:35;8.27;;;7.50;;
47309;SDS011;33046;52.270;6.832;2022-08-19T11:09:41;7.80;;;7.05;;
47309;SDS011;33046;52.270;6.832;2022-08-19T11:11:48;7.72;;;7.03;;
47309;SDS011;33046;52.270;6.832;2022-08-19T11:13:55;6.65;;;6.05;;
47309;SDS011;33046;52.270;6.832;2022-08-19T11:16:03;6.82;;;6.03;;
47309;SDS011;33046;52.270;6.832;2022-08-19T11:18:12;6.88;;;6.05;;
47309;SDS011;33046;52.270;6.832;2022-08-19T11:20:19;6.65;;;6.15;;
47309;SDS011;33046;52.270;6.832;2022-08-19T11:22:27;7.30;;;5.03;;
47309;SDS011;33046;52.270;6.832;2022-08-19T11:24:37;11.48;;;10.40;;
47309;SDS011;33046;52.270;6.832;2022-08-19T11:26:43;8.13;;;7.43;;
47309;SDS011;33046;52.270;6.832;2022-08-19T11:28:50;7.88;;;7.07;;
47309;SDS011;33046;52.270;6.832;2022-08-19T11:30:57;7.00;;;6.30;;
47309;SDS011;33046;52.270;6.832;2022-08-19T11:33:04;5.93;;;5.20;;
47309;SDS011;33046;52.270;6.832;2022-08-19T11:35:11;9.32;;;7.53;;
47309;SDS011;33046;52.270;6.832;2022-08-19T11:37:18;8.55;;;7.60;;
47309;SDS011;33046;52.270;6.832;2022-08-19T11:39:27;8.93;;;8.13;;
47309;SDS011;33046;52.270;6.832;2022-08-19T11:41:36;9.75;;;8.65;;
47309;SDS011;33046;52.270;6.832;2022-08-19T11:43:42;6.97;;;5.95;;
47309;SDS011;33046;52.270;6.832;2022-08-19T11:45:49;7.00;;;6.35;;
47309;SDS011;33046;52.270;6.832;2022-08-19T11:47:56;7.07;;;4.88;;
47309;SDS011;33046;52.270;6.832;2022-08-19T11:50:03;6.07;;;5.47;;
47309;SDS011;33046;52.270;6.832;2022-08-19T11:52:10;5.38;;;4.88;;
47309;SDS011;33046;52.270;6.832;2022-08-19T11:54:17;4.88;;;4.47;;
47309;SDS011;33046;52.270;6.832;2022-08-19T11:56:25;5.00;;;3.58;;
47309;SDS011;33046;52.270;6.832;2022-08-19T11:58:33;3.53;;;2.47;;
47309;SDS011;33046;52.270;6.832;2022-08-19T12:00:40;6.40;;;4.40;;
47309;SDS011;33046;52.270;6.832;2022-08-19T12:02:47;5.95;;;3.55;;
47309;SDS011;33046;52.270;6.832;2022-08-19T12:04:54;5.35;;;3.97;;
47309;SDS011;33046;52.270;6.832;2022-08-19T12:07:01;4.68;;;3.35;;
47309;SDS011;33046;52.270;6.832;2022-08-19T12:09:08;3.97;;;3.22;;
47309;SDS011;33046;52.270;6.832;2022-08-19T12:11:16;3.67;;;3.08;;
47309;SDS011;33046;52.270;6.832;2022-08-19T12:13:24;3.72;;;2.65;;
47309;SDS011;33046;52.270;6.832;2022-08-19T12:15:30;2.03;;;1.70;;
47309;SDS011;33046;52.270;6.832;2022-08-19T12:17:41;5.13;;;3.33;;
47309;SDS011;33046;52.270;6.832;2022-08-19T12:19:48;6.38;;;4.07;;
47309;SDS011;33046;52.270;6.832;2022-08-19T12:21:58;3.83;;;3.08;;
47309;SDS011;33046;52.270;6.832;2022-08-19T12:24:06;3.67;;;3.35;;
47309;SDS011;33046;52.270;6.832;2022-08-19T12:26:13;5.13;;;3.88;;
47309;SDS011;33046;52.270;6.832;2022-08-19T12:28:21;6.07;;;3.38;;
47309;SDS011;33046;52.270;6.832;2022-08-19T12:30:30;3.75;;;2.95;;
47309;SDS011;33046;52.270;6.832;2022-08-19T12:32:37;4.47;;;3.88;;
47309;SDS011;33046;52.270;6.832;2022-08-19T12:34:44;4.93;;;4.35;;
47309;SDS011;33046;52.270;6.832;2022-08-19T12:36:51;4.00;;;3.38;;
47309;SDS011;33046;52.270;6.832;2022-08-19T12:38:57;3.38;;;2.42;;
47309;SDS011;33046;52.270;6.832;2022-08-19T12:41:05;3.45;;;2.33;;
47309;SDS011;33046;52.270;6.832;2022-08-19T12:43:13;4.28;;;3.85;;
47309;SDS011;33046;52.270;6.832;2022-08-19T12:45:21;5.15;;;3.38;;
47309;SDS011;33046;52.270;6.832;2022-08-19T12:47:28;4.55;;;3.38;;